Latest Weather Observations for Fort Denison

IDN60901

Issued at 12:51 pm EDT Saturday 25 March 2017 (issued every 10 minutes, with the page automatically refreshed every 10 minutes)

About weather observations | Map of Sydney area stations | Latest observations for Sydney area | Other Formats
Station Details ID: 066022 Name: FORT DENISON Lat: -33.86 Lon: 151.23 Height: 5.0 m
Data from the previous 72 hours. | See also: Recent months for locations in New South Wales
Date/Time
EDT
Temp
°C
App
Temp
°C
Dew
Point
°C
Rel
Hum
%
Delta-T
°C
Wind Press
QNH
hPa
Press
MSL
hPa
Rain since
9am
mm
Dir  Spd
km/h
Gust
km/h
Spd
kts
Gust
kts
25/12:30pm - - - - - ENE 15 19 8 10 - - -
25/12:00pm - - - - - E 15 17 8 9 - - -
25/11:30am - - - - - E 11 15 6 8 - - -
25/11:00am - - - - - E 6 7 3 4 - - -
25/10:30am - - - - - WSW 4 7 2 4 - - -
25/10:00am - - - - - W 7 11 4 6 - - -
25/09:30am - - - - - W 7 9 4 5 - - -
25/09:00am - - - - - WNW 11 15 6 8 - - -
25/08:30am - - - - - W 9 13 5 7 - - -
25/08:00am - - - - - NNE 4 4 2 2 - - -
25/07:30am - - - - - W 4 6 2 3 - - -
25/07:00am - - - - - NNW 6 7 3 4 - - -
25/06:30am - - - - - WNW 6 9 3 5 - - -
25/06:00am - - - - - W 9 11 5 6 - - -
25/05:30am - - - - - WNW 7 11 4 6 - - -
25/05:00am - - - - - WNW 6 7 3 4 - - -
25/04:30am - - - - - W 9 11 5 6 - - -
25/04:00am - - - - - W 11 13 6 7 - - -
25/03:30am - - - - - W 11 13 6 7 - - -
25/03:00am - - - - - W 9 15 5 8 - - -
25/02:30am - - - - - E 9 13 5 7 - - -
25/02:00am - - - - - E 11 15 6 8 - - -
25/01:30am - - - - - E 9 13 5 7 - - -
25/01:00am - - - - - E 15 19 8 10 - - -
25/12:30am - - - - - ESE 15 19 8 10 - - -
25/12:00am - - - - - E 15 19 8 10 - - -
 
Date/Time
EDT
Temp
°C
App
Temp
°C
Dew
Point
°C
Rel
Hum
%
Delta-T
°C
Wind Press
QNH
hPa
Press
MSL
hPa
Rain since
9am
mm
Dir  Spd
km/h
Gust
km/h
Spd
kts
Gust
kts
24/11:30pm - - - - - ESE 11 13 6 7 - - -
24/11:00pm - - - - - ESE 15 19 8 10 - - -
24/10:30pm - - - - - ESE 13 17 7 9 - - -
24/10:00pm - - - - - ESE 15 24 8 13 - - -
24/09:30pm - - - - - ESE 15 22 8 12 - - -
24/09:00pm - - - - - ESE 17 24 9 13 - - -
24/08:30pm - - - - - ESE 17 22 9 12 - - -
24/08:00pm - - - - - SE 19 26 10 14 - - -
24/07:30pm - - - - - ESE 9 11 5 6 - - -
24/07:00pm - - - - - ESE 11 17 6 9 - - -
24/06:30pm - - - - - ESE 13 19 7 10 - - -
24/06:00pm - - - - - SE 11 20 6 11 - - -
24/05:30pm - - - - - SE 13 19 7 10 - - -
24/05:00pm - - - - - SE 15 20 8 11 - - -
24/04:30pm - - - - - SE 20 30 11 16 - - -
24/04:00pm - - - - - SE 20 33 11 18 - - -
24/03:30pm - - - - - SSE 9 15 5 8 - - -
24/03:00pm - - - - - S 20 30 11 16 - - -
24/02:30pm - - - - - SSE 19 24 10 13 - - -
24/02:00pm - - - - - SSW 19 28 10 15 - - -
24/01:30pm - - - - - SSW 17 26 9 14 - - -
24/01:00pm - - - - - SSW 15 22 8 12 - - -
24/12:30pm - - - - - SSW 13 22 7 12 - - -
24/12:00pm - - - - - SSE 17 41 9 22 - - -
24/11:30am - - - - - SSE 13 20 7 11 - - -
24/11:00am - - - - - SSE 20 28 11 15 - - -
24/10:30am - - - - - S 15 22 8 12 - - -
24/10:00am - - - - - SW 11 20 6 11 - - -
24/09:30am - - - - - WNW 13 17 7 9 - - -
24/09:00am - - - - - W 13 17 7 9 - - -
24/08:30am - - - - - WSW 11 15 6 8 - - -
24/08:00am - - - - - W 13 17 7 9 - - -
24/07:30am - - - - - W 17 20 9 11 - - -
24/07:00am - - - - - W 17 20 9 11 - - -
24/06:30am - - - - - W 13 17 7 9 - - -
24/06:00am - - - - - W 15 19 8 10 - - -
24/05:30am - - - - - SSW 11 20 6 11 - - -
24/05:00am - - - - - WSW 11 17 6 9 - - -
24/04:30am - - - - - SSW 6 9 3 5 - - -
24/04:00am - - - - - S 17 30 9 16 - - -
24/03:30am - - - - - SE 7 15 4 8 - - -
24/03:00am - - - - - W 11 15 6 8 - - -
24/02:30am - - - - - SSW 6 11 3 6 - - -
24/02:00am - - - - - SSW 6 7 3 4 - - -
24/01:30am - - - - - SW 7 11 4 6 - - -
24/01:00am - - - - - SSE 7 13 4 7 - - -
24/12:30am - - - - - S 15 28 8 15 - - -
24/12:00am - - - - - SSW 17 24 9 13 - - -
 
Date/Time
EDT
Temp
°C
App
Temp
°C
Dew
Point
°C
Rel
Hum
%
Delta-T
°C
Wind Press
QNH
hPa
Press
MSL
hPa
Rain since
9am
mm
Dir  Spd
km/h
Gust
km/h
Spd
kts
Gust
kts
23/11:30pm - - - - - SSW 17 26 9 14 - - -
23/11:00pm - - - - - SW 15 22 8 12 - - -
23/10:30pm - - - - - SSW 19 33 10 18 - - -
23/10:00pm - - - - - SSW 17 28 9 15 - - -
23/09:30pm - - - - - WSW 13 20 7 11 - - -
23/09:00pm - - - - - SW 13 19 7 10 - - -
23/08:30pm - - - - - SW 13 22 7 12 - - -
23/08:00pm - - - - - SSW 13 26 7 14 - - -
23/07:30pm - - - - - SSW 11 20 6 11 - - -
23/07:00pm - - - - - SSW 13 19 7 10 - - -
23/06:30pm - - - - - SSW 13 22 7 12 - - -
23/06:00pm - - - - - SSW 9 17 5 9 - - -
23/05:30pm - - - - - SSW 17 26 9 14 - - -
23/05:00pm - - - - - S 17 24 9 13 - - -
23/04:30pm - - - - - SSW 17 22 9 12 - - -
23/04:00pm - - - - - SSW 15 24 8 13 - - -
23/03:30pm - - - - - SSW 17 24 9 13 - - -
23/03:00pm - - - - - SSW 20 30 11 16 - - -
23/02:30pm - - - - - S 20 30 11 16 - - -
23/02:00pm - - - - - SSW 20 30 11 16 - - -
23/01:30pm - - - - - SSW 17 26 9 14 - - -
23/01:00pm - - - - - SSW 20 30 11 16 - - -
23/12:30pm - - - - - SSW 17 30 9 16 - - -
23/12:00pm - - - - - SSW 19 33 10 18 - - -
23/11:30am - - - - - SSW 19 28 10 15 - - -
23/11:00am - - - - - SSW 17 26 9 14 - - -
23/10:30am - - - - - SSW 17 28 9 15 - - -
23/10:00am - - - - - SSW 17 26 9 14 - - -
23/09:30am - - - - - SSW 17 32 9 17 - - -
23/09:00am - - - - - SSW 19 30 10 16 - - -
23/08:30am - - - - - SSW 15 26 8 14 - - -
23/08:00am - - - - - SSW 19 32 10 17 - - -
23/07:30am - - - - - SSW 20 33 11 18 - - -
23/07:00am - - - - - SSW 17 26 9 14 - - -
23/06:30am - - - - - SSW 19 35 10 19 - - -
23/06:00am - - - - - SSW 20 35 11 19 - - -
23/05:30am - - - - - SSW 20 32 11 17 - - -
23/05:00am - - - - - SSW 22 37 12 20 - - -
23/04:30am - - - - - SSW 22 41 12 22 - - -
23/04:00am - - - - - SSW 22 33 12 18 - - -
23/03:30am - - - - - SSW 17 24 9 13 - - -
23/03:00am - - - - - SSW 19 33 10 18 - - -
23/02:30am - - - - - SSW 20 33 11 18 - - -
23/02:00am - - - - - SSW 22 33 12 18 - - -
23/01:30am - - - - - SSW 20 37 11 20 - - -
23/01:00am - - - - - SSW 20 32 11 17 - - -
23/12:30am - - - - - SSW 22 35 12 19 - - -
23/12:00am - - - - - SSW 20 37 11 20 - - -
 
Date/Time
EDT
Temp
°C
App
Temp
°C
Dew
Point
°C
Rel
Hum
%
Delta-T
°C
Wind Press
QNH
hPa
Press
MSL
hPa
Rain since
9am
mm
Dir  Spd
km/h
Gust
km/h
Spd
kts
Gust
kts
22/11:30pm - - - - - SSW 20 33 11 18 - - -
22/11:00pm - - - - - S 20 32 11 17 - - -
22/10:30pm - - - - - S 19 32 10 17 - - -
22/10:00pm - - - - - SSE 13 24 7 13 - - -
22/09:30pm - - - - - SSW 13 19 7 10 - - -
22/09:00pm - - - - - WSW 11 19 6 10 - - -
22/08:30pm - - - - - S 7 9 4 5 - - -
22/08:00pm - - - - - WSW 17 20 9 11 - - -
22/07:30pm - - - - - WSW 20 26 11 14 - - -
22/07:00pm - - - - - WNW 9 13 5 7 - - -
22/06:30pm - - - - - ENE 11 19 6 10 - - -
22/06:00pm - - - - - SE 13 20 7 11 - - -
22/05:30pm - - - - - SW 35 63 19 34 - - -
22/05:21pm - - - - - WSW 30 48 16 26 - - -
22/05:19pm - - - - - W 28 39 15 21 - - -
22/05:00pm - - - - - SSW 4 7 2 4 - - -
22/04:30pm - - - - - WNW 17 37 9 20 - - -
22/04:00pm - - - - - ENE 13 17 7 9 - - -
22/03:30pm - - - - - ENE 20 22 11 12 - - -
22/03:00pm - - - - - E 19 22 10 12 - - -
22/02:30pm - - - - - E 17 20 9 11 - - -
22/02:00pm - - - - - NW 6 9 3 5 - - -
22/01:30pm - - - - - NW 6 9 3 5 - - -
22/01:00pm - - - - - ESE 4 7 2 4 - - -

Latest Capital City Observations: Canberra | Sydney | Melbourne | Brisbane | Adelaide | Perth | Hobart | Darwin

Other Formats:

Comma delimited format used in spreadsheet applications
http://www.bom.gov.au/fwo/IDN60901/IDN60901.94769.axf

JavaScript Object Notation format (JSON) in row-major order
http://www.bom.gov.au/fwo/IDN60901/IDN60901.94769.json